Time;durP1;ratioP1;P1;durP2;ratioP2;P2;SDS_P1;SDS_P2;PMS_P1;PMS_P2;Temp;Humidity;BMP_temperature;BMP_pressure;BME280_temperature;BME280_humidity;BME280_pressure;Samples;Min_cycle;Max_cycle;Signal;HPM_P1;HPM_P2
2022/01/24 00:02:25;;;;;;;25.07;14.17;;;;;;;;;;4994158;28;20418;-53
2022/01/24 00:04:51;;;;;;;27.50;14.13;;;;;;;;;;4994102;28;20764;-54
2022/01/24 00:07:20;;;;;;;26.73;15.13;;;;;;;;;;4993956;28;20424;-54
2022/01/24 00:09:47;;;;;;;26.27;14.07;;;;;;;;;;4993750;28;20461;-52
2022/01/24 00:12:18;;;;;;;28.60;15.00;;;;;;;;;;4994089;28;20820;-54
2022/01/24 00:17:38;;;;;;;33.70;15.80;;;;;;;;;;4994475;28;20867;-51
2022/01/24 00:42:57;;;;;;;27.00;14.97;;;;;;;;;;4993718;28;20202;-55
2022/01/24 00:45:34;;;;;;;27.20;14.33;;;;;;;;;;4993827;28;20171;-61
2022/01/24 00:53:17;;;;;;;28.23;14.77;;;;;;;;;;4993566;28;21039;-59
2022/01/24 00:55:44;;;;;;;32.53;15.33;;;;;;;;;;4993254;28;20937;-59
2022/01/24 00:58:10;;;;;;;28.60;14.57;;;;;;;;;;4993356;28;20398;-60
2022/01/24 01:00:37;;;;;;;34.33;16.30;;;;;;;;;;4993506;28;20414;-55
2022/01/24 01:03:03;;;;;;;29.43;14.80;;;;;;;;;;4993214;28;20464;-54
2022/01/24 01:18:57;;;;;;;27.10;13.70;;;;;;;;;;4993266;28;20404;-53
2022/01/24 01:21:23;;;;;;;22.50;12.33;;;;;;;;;;4993414;28;20971;-53
2022/01/24 01:23:53;;;;;;;28.90;14.17;;;;;;;;;;4992932;28;20509;-53
2022/01/24 01:26:31;;;;;;;29.10;14.50;;;;;;;;;;4993160;28;20442;-53
2022/01/24 01:29:06;;;;;;;29.60;15.40;;;;;;;;;;4992949;28;20406;-54
2022/01/24 01:31:43;;;;;;;21.70;13.00;;;;;;;;;;4992868;28;20473;-53
2022/01/24 01:34:27;;;;;;;28.60;14.40;;;;;;;;;;4993042;28;20410;-55
2022/01/24 01:40:23;;;;;;;35.03;14.60;;;;;;;;;;4992877;28;20464;-53
2022/01/24 01:52:21;;;;;;;32.90;16.10;;;;;;;;;;4992605;28;20465;-52
2022/01/24 01:56:05;;;;;;;37.43;16.33;;;;;;;;;;4992973;28;20868;-54
2022/01/24 01:58:31;;;;;;;36.47;16.33;;;;;;;;;;4992797;28;20402;-58
2022/01/24 02:00:58;;;;;;;35.63;16.03;;;;;;;;;;4992870;28;20766;-56
2022/01/24 02:03:25;;;;;;;40.13;17.30;;;;;;;;;;4995805;28;20768;-54
2022/01/24 02:05:52;;;;;;;34.10;14.77;;;;;;;;;;4996530;28;20418;-53
2022/01/24 02:08:18;;;;;;;32.17;15.10;;;;;;;;;;4996294;28;20410;-53
2022/01/24 02:10:45;;;;;;;35.27;15.53;;;;;;;;;;4996477;28;20497;-51
2022/01/24 02:13:12;;;;;;;29.87;14.47;;;;;;;;;;4996178;28;20409;-56
2022/01/24 02:25:49;;;;;;;29.83;14.23;;;;;;;;;;4996141;28;20414;-54
2022/01/24 02:28:17;;;;;;;32.23;14.70;;;;;;;;;;4995991;28;20426;-54
2022/01/24 02:33:19;;;;;;;30.20;13.60;;;;;;;;;;4996040;28;20973;-54
2022/01/24 02:35:45;;;;;;;34.07;14.50;;;;;;;;;;4994475;28;20419;-54
2022/01/24 02:49:12;;;;;;;39.50;16.20;;;;;;;;;;4995889;28;20498;-53
2022/01/24 02:51:46;;;;;;;40.07;16.30;;;;;;;;;;4995549;28;20474;-53
2022/01/24 02:54:22;;;;;;;44.97;17.10;;;;;;;;;;4995511;28;20764;-52
2022/01/24 02:56:48;;;;;;;50.37;18.83;;;;;;;;;;4995422;28;20414;-51
2022/01/24 02:59:14;;;;;;;43.47;17.63;;;;;;;;;;4995378;28;20418;-53
2022/01/24 03:01:41;;;;;;;56.50;19.90;;;;;;;;;;4993946;28;20986;-52
2022/01/24 03:04:07;;;;;;;45.77;19.30;;;;;;;;;;4995302;28;20422;-51
2022/01/24 03:06:33;;;;;;;55.63;20.47;;;;;;;;;;4995346;28;20425;-52
2022/01/24 03:08:59;;;;;;;53.03;19.10;;;;;;;;;;4995229;28;20493;-52
2022/01/24 03:11:37;;;;;;;57.80;21.20;;;;;;;;;;4995164;28;20474;-52
2022/01/24 03:14:03;;;;;;;70.13;21.07;;;;;;;;;;4994660;28;20414;-52
2022/01/24 03:16:29;;;;;;;58.60;20.87;;;;;;;;;;4994978;28;20904;-51
2022/01/24 03:18:55;;;;;;;63.90;22.53;;;;;;;;;;4995547;28;20453;-51
2022/01/24 03:21:21;;;;;;;60.50;20.57;;;;;;;;;;4995136;28;20419;-51
2022/01/24 03:23:47;;;;;;;66.40;22.13;;;;;;;;;;4994870;28;20462;-52
2022/01/24 03:26:13;;;;;;;72.80;22.47;;;;;;;;;;4995007;28;20445;-52
2022/01/24 03:28:39;;;;;;;66.90;21.93;;;;;;;;;;4994936;28;21027;-53
2022/01/24 03:31:05;;;;;;;80.50;24.80;;;;;;;;;;4994854;28;20469;-52
2022/01/24 03:33:31;;;;;;;74.57;21.93;;;;;;;;;;4994747;28;20493;-51
2022/01/24 03:35:57;;;;;;;79.63;24.27;;;;;;;;;;4994834;28;20769;-52
2022/01/24 03:38:23;;;;;;;74.00;23.13;;;;;;;;;;4994660;28;20407;-54
2022/01/24 03:40:49;;;;;;;63.67;22.87;;;;;;;;;;4993286;28;20433;-51
2022/01/24 03:43:17;;;;;;;69.17;23.33;;;;;;;;;;4994473;28;20406;-51
2022/01/24 03:45:58;;;;;;;63.50;21.77;;;;;;;;;;4994684;28;20422;-52
2022/01/24 03:48:38;;;;;;;80.10;23.23;;;;;;;;;;4994790;28;20415;-52
2022/01/24 03:51:04;;;;;;;66.60;21.60;;;;;;;;;;4994658;28;20528;-51
2022/01/24 03:53:30;;;;;;;62.87;20.70;;;;;;;;;;4994362;28;21203;-53
2022/01/24 03:55:56;;;;;;;57.10;20.70;;;;;;;;;;4994303;28;20422;-50
2022/01/24 03:58:22;;;;;;;50.73;19.33;;;;;;;;;;4994338;28;20815;-51
2022/01/24 04:00:48;;;;;;;51.40;19.27;;;;;;;;;;4994187;28;20422;-54
2022/01/24 04:03:14;;;;;;;57.60;19.63;;;;;;;;;;4994183;28;20799;-51
2022/01/24 04:05:41;;;;;;;49.17;18.60;;;;;;;;;;4994214;28;20415;-54
2022/01/24 04:08:07;;;;;;;58.33;20.10;;;;;;;;;;4994086;28;20410;-52
2022/01/24 04:10:49;;;;;;;56.90;20.77;;;;;;;;;;4993896;28;20470;-51
2022/01/24 04:13:33;;;;;;;52.37;19.57;;;;;;;;;;4993947;28;20410;-51
2022/01/24 04:21:33;;;;;;;55.27;21.30;;;;;;;;;;4994003;28;20414;-51
2022/01/24 04:24:09;;;;;;;65.73;22.20;;;;;;;;;;4993786;28;20502;-51
2022/01/24 04:26:36;;;;;;;64.43;22.10;;;;;;;;;;4993883;28;20417;-51
2022/01/24 04:29:03;;;;;;;51.93;20.47;;;;;;;;;;4993708;28;20741;-52
2022/01/24 04:31:29;;;;;;;57.57;21.53;;;;;;;;;;4993500;28;20481;-52
2022/01/24 04:33:55;;;;;;;65.50;21.53;;;;;;;;;;4994014;28;20469;-53
2022/01/24 04:36:22;;;;;;;66.23;22.47;;;;;;;;;;4993599;28;20414;-53
2022/01/24 04:38:48;;;;;;;63.17;23.43;;;;;;;;;;4993534;28;20410;-52
2022/01/24 04:41:37;;;;;;;65.77;22.87;;;;;;;;;;4993449;28;20514;-51
2022/01/24 04:46:46;;;;;;;60.13;23.13;;;;;;;;;;4993606;28;20961;-52
2022/01/24 04:54:42;;;;;;;70.63;23.30;;;;;;;;;;4993371;28;20761;-53
2022/01/24 04:57:29;;;;;;;68.50;23.50;;;;;;;;;;4993628;28;20422;-52
2022/01/24 04:59:58;;;;;;;66.37;22.57;;;;;;;;;;4993372;28;20474;-52
2022/01/24 05:02:25;;;;;;;63.60;23.23;;;;;;;;;;4993359;28;20411;-52
2022/01/24 05:04:52;;;;;;;72.03;23.43;;;;;;;;;;4993172;28;20411;-51
2022/01/24 05:07:18;;;;;;;65.03;23.83;;;;;;;;;;4993387;28;20418;-51
2022/01/24 05:25:41;;;;;;;57.67;20.23;;;;;;;;;;4993023;28;20405;-52
2022/01/24 05:28:07;;;;;;;55.77;22.57;;;;;;;;;;4992934;28;20410;-55
2022/01/24 05:30:33;;;;;;;52.83;20.57;;;;;;;;;;4993031;28;20553;-53
2022/01/24 05:32:59;;;;;;;51.00;18.80;;;;;;;;;;4992869;28;20851;-54
2022/01/24 05:35:25;;;;;;;54.00;20.60;;;;;;;;;;4993193;28;20415;-52
2022/01/24 05:37:51;;;;;;;46.13;19.13;;;;;;;;;;4995093;28;20493;-52
2022/01/24 05:40:17;;;;;;;52.93;20.30;;;;;;;;;;4996722;28;20557;-53
2022/01/24 05:42:43;;;;;;;47.13;17.23;;;;;;;;;;4996603;28;20926;-52
2022/01/24 05:45:09;;;;;;;42.23;17.90;;;;;;;;;;4996660;28;20406;-53
2022/01/24 05:47:35;;;;;;;44.87;17.10;;;;;;;;;;4996520;28;20817;-53
2022/01/24 05:50:01;;;;;;;38.20;16.00;;;;;;;;;;4996370;28;20462;-53
2022/01/24 05:52:27;;;;;;;41.50;16.97;;;;;;;;;;4996435;28;20422;-54
2022/01/24 05:54:53;;;;;;;44.57;16.60;;;;;;;;;;4995037;28;20969;-52
2022/01/24 05:57:19;;;;;;;45.43;17.20;;;;;;;;;;4996440;28;20418;-53
2022/01/24 05:59:45;;;;;;;42.23;16.87;;;;;;;;;;4996334;28;20414;-53
2022/01/24 06:02:11;;;;;;;49.03;17.10;;;;;;;;;;4996225;28;20436;-52
2022/01/24 06:04:37;;;;;;;46.67;16.80;;;;;;;;;;4996133;28;20417;-53
2022/01/24 06:07:03;;;;;;;40.07;16.60;;;;;;;;;;4996138;28;20419;-52
2022/01/24 06:09:29;;;;;;;43.97;17.73;;;;;;;;;;4996184;28;20409;-55
2022/01/24 06:11:55;;;;;;;42.60;17.63;;;;;;;;;;4996432;28;20473;-56
2022/01/24 06:14:21;;;;;;;47.87;18.67;;;;;;;;;;4996112;28;20406;-52
2022/01/24 06:16:47;;;;;;;41.33;17.10;;;;;;;;;;4995695;28;20417;-53
2022/01/24 06:19:13;;;;;;;46.20;18.70;;;;;;;;;;4996029;28;20414;-52
2022/01/24 06:21:40;;;;;;;44.77;17.90;;;;;;;;;;4995646;28;20402;-53
2022/01/24 06:24:06;;;;;;;44.90;18.33;;;;;;;;;;4995815;28;20410;-53
2022/01/24 06:26:33;;;;;;;44.43;17.60;;;;;;;;;;4995658;28;20402;-53
2022/01/24 06:28:59;;;;;;;43.00;17.20;;;;;;;;;;4995528;28;20473;-52
2022/01/24 06:31:25;;;;;;;42.93;17.83;;;;;;;;;;4995630;28;20871;-53
2022/01/24 06:33:52;;;;;;;49.60;18.40;;;;;;;;;;4994366;28;20493;-54
2022/01/24 06:36:18;;;;;;;52.70;19.57;;;;;;;;;;4995595;28;20729;-53
2022/01/24 06:38:44;;;;;;;49.27;19.10;;;;;;;;;;4995712;28;20417;-54
2022/01/24 06:41:10;;;;;;;45.70;18.43;;;;;;;;;;4995491;28;20414;-54
2022/01/24 06:43:36;;;;;;;56.70;20.93;;;;;;;;;;4995834;28;20434;-53
2022/01/24 06:46:03;;;;;;;50.57;18.97;;;;;;;;;;5005668;28;20413;-52
2022/01/24 06:48:29;;;;;;;53.80;19.00;;;;;;;;;;5002763;28;20402;-52
2022/01/24 06:50:55;;;;;;;51.63;19.53;;;;;;;;;;5004644;28;20465;-61
2022/01/24 06:53:21;;;;;;;52.53;19.67;;;;;;;;;;5005870;28;20406;-52
2022/01/24 06:55:47;;;;;;;45.10;18.47;;;;;;;;;;5005784;28;20425;-54
2022/01/24 06:58:13;;;;;;;52.73;19.20;;;;;;;;;;5004738;28;20426;-55
2022/01/24 07:00:39;;;;;;;50.53;19.53;;;;;;;;;;5004156;28;20910;-52
2022/01/24 07:03:05;;;;;;;44.23;18.20;;;;;;;;;;5005580;28;20451;-53
2022/01/24 07:05:31;;;;;;;54.27;20.37;;;;;;;;;;5003068;28;20578;-52
2022/01/24 07:07:59;;;;;;;55.83;19.77;;;;;;;;;;5004120;28;20512;-53
2022/01/24 07:10:26;;;;;;;48.60;18.90;;;;;;;;;;5005416;28;20457;-53
2022/01/24 07:12:52;;;;;;;50.60;18.90;;;;;;;;;;5004245;28;20948;-50
2022/01/24 07:15:21;;;;;;;46.77;19.23;;;;;;;;;;5009704;28;20413;-51
2022/01/24 07:18:12;;;;;;;47.10;18.63;;;;;;;;;;5014852;28;20432;-54
2022/01/24 07:20:38;;;;;;;43.73;17.77;;;;;;;;;;5014660;28;20409;-53
2022/01/24 07:23:05;;;;;;;45.90;18.03;;;;;;;;;;5013606;28;20491;-52
2022/01/24 07:25:31;;;;;;;48.03;18.00;;;;;;;;;;5003239;28;20419;-53
2022/01/24 07:27:57;;;;;;;41.63;16.00;;;;;;;;;;5003886;28;20421;-53
2022/01/24 07:30:24;;;;;;;48.63;17.60;;;;;;;;;;5004542;28;20512;-52
2022/01/24 07:32:50;;;;;;;45.27;18.40;;;;;;;;;;5004329;28;20430;-52
2022/01/24 07:35:16;;;;;;;44.80;17.50;;;;;;;;;;5003548;28;20438;-54
2022/01/24 07:37:42;;;;;;;49.93;18.80;;;;;;;;;;5002670;28;20420;-58
2022/01/24 07:40:10;;;;;;;46.13;19.13;;;;;;;;;;5004840;28;20422;-56
2022/01/24 07:42:53;;;;;;;43.43;17.43;;;;;;;;;;5006584;28;20413;-56
2022/01/24 07:45:19;;;;;;;49.13;19.03;;;;;;;;;;5001400;28;20496;-58
2022/01/24 07:47:49;;;;;;;45.00;17.67;;;;;;;;;;5004066;28;21000;-58
2022/01/24 07:50:17;;;;;;;50.00;20.60;;;;;;;;;;5004157;28;20460;-59
2022/01/24 07:52:43;;;;;;;49.23;19.17;;;;;;;;;;5003817;28;20449;-63
2022/01/24 07:55:09;;;;;;;42.13;18.63;;;;;;;;;;5002057;28;20775;-61
2022/01/24 07:57:35;;;;;;;39.53;17.00;;;;;;;;;;5003139;28;20471;-55
2022/01/24 08:00:02;;;;;;;39.93;17.20;;;;;;;;;;5003174;28;20406;-55
2022/01/24 08:02:27;;;;;;;40.63;17.40;;;;;;;;;;5004132;28;20977;-58
2022/01/24 08:04:53;;;;;;;39.83;16.83;;;;;;;;;;5002546;28;20497;-54
2022/01/24 08:07:19;;;;;;;40.63;17.53;;;;;;;;;;5002650;28;20406;-58
2022/01/24 08:09:46;;;;;;;37.23;16.30;;;;;;;;;;5003710;28;22045;-54
2022/01/24 08:12:12;;;;;;;33.40;16.13;;;;;;;;;;5025201;28;20432;-55
2022/01/24 08:14:38;;;;;;;33.60;15.77;;;;;;;;;;5004406;28;20796;-59
2022/01/24 08:17:04;;;;;;;31.10;16.03;;;;;;;;;;5017241;28;20422;-52
2022/01/24 08:19:32;;;;;;;37.83;16.53;;;;;;;;;;5004179;28;20403;-61
2022/01/24 08:21:58;;;;;;;35.00;16.30;;;;;;;;;;5004384;28;20457;-53
2022/01/24 08:24:25;;;;;;;28.70;15.63;;;;;;;;;;5004482;28;20797;-58
2022/01/24 08:26:51;;;;;;;34.57;15.93;;;;;;;;;;5003491;28;20406;-54
2022/01/24 08:29:17;;;;;;;33.43;16.43;;;;;;;;;;5002217;28;20418;-56
2022/01/24 08:31:43;;;;;;;34.67;16.60;;;;;;;;;;5001643;28;20465;-54
2022/01/24 08:34:09;;;;;;;33.43;16.70;;;;;;;;;;5003248;28;20875;-53
2022/01/24 08:36:35;;;;;;;36.83;16.50;;;;;;;;;;5000560;28;20413;-56
2022/01/24 08:39:08;;;;;;;31.43;16.30;;;;;;;;;;5002406;28;20411;-54
2022/01/24 08:41:59;;;;;;;28.70;16.03;;;;;;;;;;5001936;28;20489;-54
2022/01/24 08:45:41;;;;;;;33.17;17.20;;;;;;;;;;5003432;28;20926;-53
2022/01/24 08:47:17;;;;;;;29.20;15.17;;;;;;;;;;5002021;28;20518;-57
2022/01/24 08:49:43;;;;;;;31.67;15.80;;;;;;;;;;5001280;28;20759;-59
2022/01/24 08:52:09;;;;;;;37.20;18.00;;;;;;;;;;5003524;28;20415;-56
2022/01/24 08:54:35;;;;;;;34.53;17.13;;;;;;;;;;5002308;28;20420;-59
2022/01/24 08:57:02;;;;;;;32.17;16.87;;;;;;;;;;5000412;28;20430;-55
2022/01/24 08:59:30;;;;;;;36.47;16.87;;;;;;;;;;5004338;28;20428;-56
2022/01/24 09:01:57;;;;;;;30.30;16.10;;;;;;;;;;5004436;28;20425;-54
2022/01/24 09:04:23;;;;;;;33.87;16.50;;;;;;;;;;5000271;28;20442;-54
2022/01/24 09:06:49;;;;;;;32.40;15.60;;;;;;;;;;5010628;28;20417;-57
2022/01/24 09:09:16;;;;;;;26.93;14.63;;;;;;;;;;5011391;28;20451;-54
2022/01/24 09:11:42;;;;;;;29.63;15.00;;;;;;;;;;5011781;28;20833;-53
2022/01/24 09:14:08;;;;;;;26.40;13.30;;;;;;;;;;5015614;28;20843;-63
2022/01/24 09:16:35;;;;;;;32.03;15.80;;;;;;;;;;5015537;28;20444;-55
2022/01/24 09:19:01;;;;;;;29.17;15.17;;;;;;;;;;5015489;28;20401;-53
2022/01/24 09:21:28;;;;;;;24.93;14.53;;;;;;;;;;5015256;28;20420;-54
2022/01/24 09:23:55;;;;;;;27.37;14.20;;;;;;;;;;5015228;28;20472;-55
2022/01/24 09:26:21;;;;;;;28.30;15.13;;;;;;;;;;5014779;28;20417;-55
2022/01/24 09:28:47;;;;;;;27.97;14.37;;;;;;;;;;5014969;28;20474;-54
2022/01/24 09:31:13;;;;;;;28.70;15.23;;;;;;;;;;5015098;28;20469;-54
2022/01/24 09:33:39;;;;;;;25.47;14.50;;;;;;;;;;5014942;28;20412;-53
2022/01/24 09:36:05;;;;;;;28.50;14.67;;;;;;;;;;5014098;28;20507;-52
2022/01/24 09:38:32;;;;;;;28.63;15.30;;;;;;;;;;5015320;28;20413;-53
2022/01/24 09:41:04;;;;;;;29.03;13.80;;;;;;;;;;5015137;28;20452;-55
2022/01/24 09:43:30;;;;;;;27.67;14.90;;;;;;;;;;4998709;28;20444;-55
2022/01/24 09:45:56;;;;;;;23.77;13.67;;;;;;;;;;4995462;28;20424;-55
2022/01/24 09:48:23;;;;;;;26.10;13.00;;;;;;;;;;4995384;28;20442;-55
2022/01/24 09:50:53;;;;;;;29.97;15.50;;;;;;;;;;4995317;28;20474;-54
2022/01/24 09:53:23;;;;;;;28.50;14.93;;;;;;;;;;4995422;28;20413;-52
2022/01/24 09:55:50;;;;;;;26.37;14.87;;;;;;;;;;4995380;28;20409;-55
2022/01/24 09:58:16;;;;;;;25.87;15.00;;;;;;;;;;4995550;28;20414;-55
2022/01/24 10:00:42;;;;;;;13.83;10.20;;;;;;;;;;5013240;28;20413;-54
2022/01/24 10:03:09;;;;;;;18.33;10.30;;;;;;;;;;5014683;28;20413;-53
2022/01/24 10:05:39;;;;;;;19.10;11.37;;;;;;;;;;5014482;28;21005;-54
2022/01/24 10:08:07;;;;;;;19.73;11.50;;;;;;;;;;5014747;28;20413;-54
2022/01/24 10:10:34;;;;;;;14.30;10.07;;;;;;;;;;5014224;28;20460;-54
2022/01/24 10:16:35;;;;;;;14.93;10.10;;;;;;;;;;5014410;28;20455;-53
2022/01/24 10:19:02;;;;;;;18.50;10.93;;;;;;;;;;5014499;28;20922;-54
2022/01/24 10:21:28;;;;;;;15.50;10.83;;;;;;;;;;5014263;28;20504;-54
2022/01/24 10:23:55;;;;;;;16.80;10.23;;;;;;;;;;5008063;28;20457;-56
2022/01/24 10:26:21;;;;;;;14.90;10.00;;;;;;;;;;5014271;28;20413;-53
2022/01/24 10:28:49;;;;;;;20.03;10.00;;;;;;;;;;5014367;28;20487;-57
2022/01/24 10:31:17;;;;;;;14.10;10.63;;;;;;;;;;5014386;28;20468;-56
2022/01/24 10:33:51;;;;;;;14.60;9.77;;;;;;;;;;5005261;28;20411;-56
2022/01/24 10:36:27;;;;;;;18.23;10.47;;;;;;;;;;4994582;28;20547;-54
2022/01/24 10:39:06;;;;;;;14.23;9.53;;;;;;;;;;4993510;28;20464;-55
2022/01/24 10:41:50;;;;;;;18.50;10.50;;;;;;;;;;4994535;28;20486;-55
2022/01/24 10:44:37;;;;;;;15.43;10.30;;;;;;;;;;4994624;28;20410;-56
2022/01/24 10:47:12;;;;;;;13.93;9.13;;;;;;;;;;4994235;28;20919;-56
2022/01/24 10:49:39;;;;;;;12.87;8.80;;;;;;;;;;4994493;28;20414;-56
2022/01/24 10:52:09;;;;;;;12.50;8.50;;;;;;;;;;4994141;28;20473;-65
2022/01/24 10:54:35;;;;;;;15.00;9.80;;;;;;;;;;4994217;28;20414;-54
2022/01/24 10:57:01;;;;;;;12.00;9.30;;;;;;;;;;4994077;28;20477;-53
2022/01/24 10:59:27;;;;;;;13.87;9.90;;;;;;;;;;4994120;28;20415;-55
2022/01/24 11:01:57;;;;;;;17.30;9.40;;;;;;;;;;4994397;28;20471;-56
2022/01/24 11:04:24;;;;;;;11.40;8.23;;;;;;;;;;5011152;28;20410;-55
2022/01/24 11:06:51;;;;;;;13.23;8.67;;;;;;;;;;5013237;28;20826;-56
2022/01/24 11:09:23;;;;;;;8.93;6.87;;;;;;;;;;5013506;28;20410;-55
2022/01/24 11:12:23;;;;;;;6.60;5.97;;;;;;;;;;5013406;28;20465;-57
2022/01/24 11:14:50;;;;;;;8.60;5.93;;;;;;;;;;5013117;28;20421;-58
2022/01/24 11:17:24;;;;;;;5.67;5.17;;;;;;;;;;5013567;28;20401;-57
2022/01/24 11:19:57;;;;;;;5.40;4.90;;;;;;;;;;5013322;28;20443;-56
2022/01/24 11:22:26;;;;;;;5.30;4.90;;;;;;;;;;5009854;28;20449;-53
2022/01/24 11:25:04;;;;;;;5.63;4.63;;;;;;;;;;5044741;28;20946;-55
2022/01/24 11:27:30;;;;;;;4.57;4.23;;;;;;;;;;5045045;28;20401;-54
2022/01/24 11:29:58;;;;;;;5.17;4.77;;;;;;;;;;5012992;28;20405;-58
2022/01/24 11:32:33;;;;;;;4.70;4.40;;;;;;;;;;5013165;28;20901;-66
2022/01/24 11:34:59;;;;;;;5.20;4.70;;;;;;;;;;4992956;28;20497;-64
2022/01/24 11:37:37;;;;;;;4.73;4.37;;;;;;;;;;4993501;28;20410;-58
2022/01/24 11:40:08;;;;;;;6.33;4.60;;;;;;;;;;4993582;28;20493;-59
2022/01/24 11:42:36;;;;;;;4.13;3.83;;;;;;;;;;4993277;28;20460;-66
2022/01/24 11:45:10;;;;;;;4.27;4.07;;;;;;;;;;4993120;28;20810;-59
2022/01/24 11:47:36;;;;;;;4.30;4.00;;;;;;;;;;4994366;28;20867;-60
2022/01/24 11:50:22;;;;;;;3.70;3.60;;;;;;;;;;4992982;28;20772;-53
2022/01/24 11:52:48;;;;;;;4.00;3.80;;;;;;;;;;4993177;28;20422;-58
2022/01/24 11:55:16;;;;;;;4.10;3.80;;;;;;;;;;4993128;28;20415;-56
2022/01/24 11:57:49;;;;;;;3.80;3.60;;;;;;;;;;4993425;28;20417;-65
2022/01/24 12:00:21;;;;;;;3.93;3.53;;;;;;;;;;4993058;28;20406;-59
2022/01/24 12:02:53;;;;;;;3.60;3.37;;;;;;;;;;4992781;28;20509;-56
2022/01/24 12:05:20;;;;;;;5.73;5.23;;;;;;;;;;5002042;28;20501;-58
2022/01/24 12:07:48;;;;;;;3.73;3.63;;;;;;;;;;5012314;28;20405;-57
2022/01/24 12:10:23;;;;;;;4.00;3.70;;;;;;;;;;5012329;28;20449;-59
2022/01/24 12:12:50;;;;;;;6.23;4.00;;;;;;;;;;5012059;28;20411;-58
2022/01/24 12:15:35;;;;;;;3.67;3.57;;;;;;;;;;4994845;28;20446;-61
2022/01/24 12:18:02;;;;;;;5.00;3.50;;;;;;;;;;5003242;28;20405;-54
2022/01/24 12:20:31;;;;;;;3.07;2.97;;;;;;;;;;5011179;28;20416;-55
2022/01/24 12:22:58;;;;;;;3.90;3.70;;;;;;;;;;5011841;28;20468;-55
2022/01/24 12:25:42;;;;;;;5.90;5.40;;;;;;;;;;5012070;28;20413;-56
2022/01/24 12:28:24;;;;;;;5.70;5.20;;;;;;;;;;5012191;28;20413;-60
2022/01/24 12:30:58;;;;;;;6.30;5.80;;;;;;;;;;5012056;28;20981;-56
2022/01/24 12:33:53;;;;;;;6.20;3.97;;;;;;;;;;5005551;28;20421;-57
2022/01/24 12:39:20;;;;;;;5.67;5.17;;;;;;;;;;4992184;28;20513;-56
2022/01/24 12:41:58;;;;;;;3.97;3.70;;;;;;;;;;4992272;28;20406;-56
2022/01/24 12:47:05;;;;;;;4.70;4.40;;;;;;;;;;4992103;28;20413;-56
2022/01/24 12:49:31;;;;;;;13.53;5.37;;;;;;;;;;4992115;28;20448;-56
2022/01/24 12:52:02;;;;;;;11.67;5.17;;;;;;;;;;4992054;28;20539;-56
2022/01/24 12:54:29;;;;;;;8.93;6.47;;;;;;;;;;4992164;28;20422;-61
2022/01/24 12:56:59;;;;;;;10.73;6.00;;;;;;;;;;4991660;28;20425;-57
2022/01/24 12:59:25;;;;;;;15.63;5.27;;;;;;;;;;4995834;28;20424;-57
2022/01/24 13:01:55;;;;;;;7.70;4.70;;;;;;;;;;4997564;28;20410;-57
2022/01/24 13:04:30;;;;;;;5.20;4.43;;;;;;;;;;5008424;28;20484;-54
2022/01/24 13:06:57;;;;;;;6.67;4.93;;;;;;;;;;5011782;28;20747;-56
2022/01/24 13:09:26;;;;;;;5.80;5.30;;;;;;;;;;5011732;28;20920;-53
2022/01/24 13:11:53;;;;;;;6.20;5.60;;;;;;;;;;5010520;28;20484;-57
2022/01/24 13:14:25;;;;;;;20.17;5.80;;;;;;;;;;5008473;28;20413;-57
2022/01/24 13:25:14;;;;;;;9.50;5.70;;;;;;;;;;4992163;28;20505;-56
2022/01/24 13:27:48;;;;;;;20.70;6.50;;;;;;;;;;4998478;28;20413;-57
2022/01/24 13:30:25;;;;;;;5.67;5.17;;;;;;;;;;5009826;28;20457;-56
2022/01/24 13:32:51;;;;;;;11.07;8.20;;;;;;;;;;5003339;28;20468;-61
2022/01/24 13:35:19;;;;;;;10.27;6.83;;;;;;;;;;5008632;28;20409;-58
2022/01/24 13:37:45;;;;;;;10.00;6.30;;;;;;;;;;5011706;28;20428;-56
2022/01/24 13:40:12;;;;;;;8.47;6.30;;;;;;;;;;5011552;28;20420;-61
2022/01/24 13:42:38;;;;;;;8.13;5.77;;;;;;;;;;5010161;28;20425;-61
2022/01/24 13:45:05;;;;;;;5.73;5.23;;;;;;;;;;5011688;28;20428;-60
2022/01/24 13:47:31;;;;;;;5.37;5.07;;;;;;;;;;5011673;28;20445;-60
2022/01/24 13:49:57;;;;;;;5.90;5.50;;;;;;;;;;5006603;28;20830;-55
2022/01/24 13:52:28;;;;;;;4.97;4.67;;;;;;;;;;5009510;28;20476;-63
2022/01/24 13:54:54;;;;;;;4.60;4.33;;;;;;;;;;4992265;28;20960;-59
2022/01/24 13:57:20;;;;;;;5.10;4.57;;;;;;;;;;4994506;28;20473;-59
2022/01/24 13:59:46;;;;;;;4.67;4.37;;;;;;;;;;5011679;28;20755;-61
2022/01/24 14:02:15;;;;;;;7.20;5.17;;;;;;;;;;5014965;28;20401;-64
2022/01/24 14:04:46;;;;;;;5.47;5.07;;;;;;;;;;5014811;28;20413;-58
2022/01/24 14:07:13;;;;;;;8.53;5.13;;;;;;;;;;5015211;28;20414;-56
2022/01/24 14:09:47;;;;;;;10.47;4.87;;;;;;;;;;5015328;28;20819;-58
2022/01/24 14:12:17;;;;;;;5.03;4.53;;;;;;;;;;5014855;28;20477;-56
2022/01/24 14:14:58;;;;;;;5.87;5.17;;;;;;;;;;5015010;28;20420;-58
2022/01/24 14:17:35;;;;;;;5.33;4.87;;;;;;;;;;5015487;28;20492;-57
2022/01/24 14:20:05;;;;;;;5.43;4.87;;;;;;;;;;5015107;28;20413;-57
2022/01/24 14:22:38;;;;;;;5.53;5.00;;;;;;;;;;5014450;28;20520;-58
2022/01/24 14:25:05;;;;;;;6.60;6.00;;;;;;;;;;5034452;28;20411;-57
2022/01/24 14:27:43;;;;;;;5.93;5.40;;;;;;;;;;5026570;28;20413;-59
2022/01/24 14:30:12;;;;;;;5.83;5.40;;;;;;;;;;5002985;28;20401;-56
2022/01/24 14:32:45;;;;;;;9.73;6.37;;;;;;;;;;5000085;28;20472;-58
2022/01/24 14:35:11;;;;;;;6.77;6.07;;;;;;;;;;4995574;28;20403;-62
2022/01/24 14:37:56;;;;;;;14.00;7.20;;;;;;;;;;4998410;28;20430;-58
2022/01/24 14:40:34;;;;;;;10.03;7.10;;;;;;;;;;5014644;28;20786;-55
2022/01/24 14:45:45;;;;;;;9.37;7.13;;;;;;;;;;5014523;28;20472;-58
2022/01/24 14:48:11;;;;;;;12.23;8.30;;;;;;;;;;5013895;28;20417;-56
2022/01/24 14:50:37;;;;;;;11.93;8.43;;;;;;;;;;5014350;28;20444;-56
2022/01/24 14:53:06;;;;;;;12.27;8.90;;;;;;;;;;5014505;28;20417;-56
2022/01/24 14:55:32;;;;;;;15.43;9.30;;;;;;;;;;5014331;28;20420;-58
2022/01/24 14:57:58;;;;;;;14.77;9.67;;;;;;;;;;5014251;28;20426;-57
2022/01/24 15:00:26;;;;;;;14.93;9.40;;;;;;;;;;5014423;28;20420;-57
2022/01/24 15:02:54;;;;;;;15.90;8.63;;;;;;;;;;5012858;28;20428;-56
2022/01/24 15:05:20;;;;;;;12.50;7.83;;;;;;;;;;5014245;28;20428;-57
2022/01/24 15:07:46;;;;;;;11.43;8.30;;;;;;;;;;5014387;28;20802;-55
2022/01/24 15:10:12;;;;;;;10.53;8.37;;;;;;;;;;5012970;28;20414;-57
2022/01/24 15:12:45;;;;;;;12.97;9.00;;;;;;;;;;5014022;28;20513;-56
2022/01/24 15:15:15;;;;;;;16.30;9.63;;;;;;;;;;5013892;28;20416;-58
2022/01/24 15:23:58;;;;;;;14.07;9.50;;;;;;;;;;5014100;28;20460;-53
2022/01/24 15:26:03;;;;;;;17.93;10.97;;;;;;;;;;5013304;28;20771;-57
2022/01/24 15:28:29;;;;;;;19.63;11.70;;;;;;;;;;5013687;28;20957;-57
2022/01/24 15:30:55;;;;;;;29.93;12.40;;;;;;;;;;5013658;28;20487;-59
2022/01/24 15:33:22;;;;;;;21.60;12.03;;;;;;;;;;5012391;28;20414;-63
2022/01/24 15:35:48;;;;;;;24.13;13.00;;;;;;;;;;5013620;28;20413;-57
2022/01/24 15:38:15;;;;;;;25.73;13.53;;;;;;;;;;5013511;28;20845;-58
2022/01/24 15:40:41;;;;;;;28.93;15.20;;;;;;;;;;5013353;28;20413;-56
2022/01/24 15:48:21;;;;;;;33.43;16.37;;;;;;;;;;5013934;28;20417;-62
2022/01/24 15:50:47;;;;;;;31.77;16.30;;;;;;;;;;5014050;28;20483;-56
2022/01/24 15:53:13;;;;;;;37.33;17.00;;;;;;;;;;5012273;28;20460;-56
2022/01/24 15:55:43;;;;;;;36.53;17.40;;;;;;;;;;5013453;28;20445;-56
2022/01/24 15:58:09;;;;;;;29.47;15.80;;;;;;;;;;5013013;28;20414;-58
2022/01/24 16:00:39;;;;;;;37.13;16.37;;;;;;;;;;5027045;28;20404;-60
2022/01/24 16:03:06;;;;;;;32.27;16.33;;;;;;;;;;5033057;28;20412;-57
2022/01/24 16:05:33;;;;;;;37.13;17.10;;;;;;;;;;5032873;28;20408;-54
2022/01/24 16:07:59;;;;;;;33.70;16.70;;;;;;;;;;5031383;28;20508;-56
2022/01/24 16:10:27;;;;;;;41.37;16.70;;;;;;;;;;5032973;28;20510;-55
2022/01/24 16:12:53;;;;;;;37.50;17.00;;;;;;;;;;5033026;28;20459;-57
2022/01/24 16:15:20;;;;;;;31.17;16.73;;;;;;;;;;5032649;28;20758;-55
2022/01/24 16:17:47;;;;;;;33.67;17.07;;;;;;;;;;5032792;28;20471;-59
2022/01/24 16:20:34;;;;;;;29.30;15.13;;;;;;;;;;5032682;28;20404;-60
2022/01/24 16:23:30;;;;;;;34.23;16.67;;;;;;;;;;5032320;28;20468;-56
2022/01/24 16:25:52;;;;;;;35.97;16.33;;;;;;;;;;5032319;28;20416;-58
2022/01/24 16:28:24;;;;;;;23.17;14.27;;;;;;;;;;5031281;28;20423;-63
2022/01/24 16:30:52;;;;;;;30.90;16.30;;;;;;;;;;5032870;28;21050;-55
2022/01/24 16:33:18;;;;;;;29.73;16.10;;;;;;;;;;5032685;28;20405;-60
2022/01/24 16:35:44;;;;;;;28.20;15.13;;;;;;;;;;5032626;28;20495;-71
2022/01/24 16:38:12;;;;;;;31.90;16.87;;;;;;;;;;5032526;28;20424;-67
2022/01/24 16:40:44;;;;;;;30.07;15.90;;;;;;;;;;5032194;28;20916;-59
2022/01/24 16:48:21;;;;;;;31.00;15.80;;;;;;;;;;5012968;28;20847;-73
2022/01/24 16:50:47;;;;;;;29.93;16.57;;;;;;;;;;5012451;28;20456;-58
2022/01/24 16:53:16;;;;;;;28.17;15.93;;;;;;;;;;5012445;28;20941;-57
2022/01/24 16:55:42;;;;;;;31.57;15.77;;;;;;;;;;5012589;28;20489;-62
2022/01/24 16:58:09;;;;;;;26.40;15.03;;;;;;;;;;5012550;28;20493;-58
2022/01/24 17:00:35;;;;;;;22.73;14.03;;;;;;;;;;5011820;28;20425;-57
2022/01/24 17:03:01;;;;;;;24.60;14.27;;;;;;;;;;5012318;28;20436;-57